sensor_id;sensor_type;location;lat;lon;timestamp;pressure;altitude;pressure_sealevel;temperature;humidity
44140;BME280;29803;51.048;4.686;2023-02-22T00:00:00;101493.53;;;5.07;100.00
44140;BME280;29803;51.048;4.686;2023-02-22T00:02:31;101497.91;;;5.08;100.00
44140;BME280;29803;51.048;4.686;2023-02-22T00:05:03;101496.94;;;5.09;100.00
44140;BME280;29803;51.048;4.686;2023-02-22T00:07:34;101502.63;;;5.04;100.00
44140;BME280;29803;51.048;4.686;2023-02-22T00:10:05;101502.94;;;5.00;100.00
44140;BME280;29803;51.048;4.686;2023-02-22T00:12:42;101492.53;;;4.97;100.00
44140;BME280;29803;51.048;4.686;2023-02-22T00:15:14;101503.91;;;4.99;100.00
44140;BME280;29803;51.048;4.686;2023-02-22T00:17:45;101499.31;;;5.01;100.00
44140;BME280;29803;51.048;4.686;2023-02-22T00:20:16;101505.28;;;5.04;100.00
44140;BME280;29803;51.048;4.686;2023-02-22T00:22:48;101504.56;;;5.02;100.00
44140;BME280;29803;51.048;4.686;2023-02-22T00:25:23;101503.69;;;5.02;100.00
44140;BME280;29803;51.048;4.686;2023-02-22T00:27:53;101504.56;;;5.02;100.00
44140;BME280;29803;51.048;4.686;2023-02-22T00:30:28;101504.91;;;4.98;100.00
44140;BME280;29803;51.048;4.686;2023-02-22T00:32:59;101509.25;;;4.99;100.00
44140;BME280;29803;51.048;4.686;2023-02-22T00:35:30;101503.81;;;5.00;100.00
44140;BME280;29803;51.048;4.686;2023-02-22T00:38:02;101508.16;;;5.01;100.00
44140;BME280;29803;51.048;4.686;2023-02-22T00:40:34;101504.56;;;5.02;100.00
44140;BME280;29803;51.048;4.686;2023-02-22T00:43:05;101508.06;;;5.03;100.00
44140;BME280;29803;51.048;4.686;2023-02-22T00:45:36;101503.81;;;5.00;100.00
44140;BME280;29803;51.048;4.686;2023-02-22T00:48:08;101497.41;;;5.03;100.00
44140;BME280;29803;51.048;4.686;2023-02-22T00:50:38;101495.59;;;5.03;100.00
44140;BME280;29803;51.048;4.686;2023-02-22T00:53:09;101492.19;;;5.01;100.00
44140;BME280;29803;51.048;4.686;2023-02-22T00:55:40;101490.38;;;5.02;100.00
44140;BME280;29803;51.048;4.686;2023-02-22T00:58:11;101487.63;;;5.03;100.00
44140;BME280;29803;51.048;4.686;2023-02-22T01:00:42;101483.38;;;5.01;100.00
44140;BME280;29803;51.048;4.686;2023-02-22T01:03:15;101482.53;;;5.00;100.00
44140;BME280;29803;51.048;4.686;2023-02-22T01:05:46;101480.00;;;4.99;100.00
44140;BME280;29803;51.048;4.686;2023-02-22T01:08:17;101478.31;;;4.98;100.00
44140;BME280;29803;51.048;4.686;2023-02-22T01:10:47;101471.25;;;4.97;100.00
44140;BME280;29803;51.048;4.686;2023-02-22T01:13:18;101473.41;;;4.91;100.00
44140;BME280;29803;51.048;4.686;2023-02-22T01:15:49;101468.22;;;4.90;100.00
44140;BME280;29803;51.048;4.686;2023-02-22T01:18:19;101460.38;;;4.88;100.00
44140;BME280;29803;51.048;4.686;2023-02-22T01:20:51;101469.19;;;4.89;100.00
44140;BME280;29803;51.048;4.686;2023-02-22T01:23:21;101464.72;;;4.89;100.00
44140;BME280;29803;51.048;4.686;2023-02-22T01:25:52;101452.59;;;4.85;100.00
44140;BME280;29803;51.048;4.686;2023-02-22T01:28:23;101454.53;;;4.83;100.00
44140;BME280;29803;51.048;4.686;2023-02-22T01:30:54;101453.56;;;4.84;100.00
44140;BME280;29803;51.048;4.686;2023-02-22T01:33:25;101445.81;;;4.81;100.00
44140;BME280;29803;51.048;4.686;2023-02-22T01:35:56;101451.38;;;4.78;100.00
44140;BME280;29803;51.048;4.686;2023-02-22T01:38:27;101450.63;;;4.76;100.00
44140;BME280;29803;51.048;4.686;2023-02-22T01:40:57;101434.09;;;4.73;100.00
44140;BME280;29803;51.048;4.686;2023-02-22T01:43:30;101440.34;;;4.72;100.00
44140;BME280;29803;51.048;4.686;2023-02-22T01:49:09;101432.31;;;4.60;100.00
44140;BME280;29803;51.048;4.686;2023-02-22T01:51:44;101433.16;;;4.61;100.00
44140;BME280;29803;51.048;4.686;2023-02-22T01:54:23;101428.81;;;4.60;100.00
44140;BME280;29803;51.048;4.686;2023-02-22T01:57:13;101427.63;;;4.64;100.00
44140;BME280;29803;51.048;4.686;2023-02-22T01:59:48;101432.09;;;4.63;100.00
44140;BME280;29803;51.048;4.686;2023-02-22T02:02:19;101424.47;;;4.59;100.00
44140;BME280;29803;51.048;4.686;2023-02-22T02:04:53;101426.28;;;4.58;100.00
44140;BME280;29803;51.048;4.686;2023-02-22T02:07:28;101423.00;;;4.55;100.00
44140;BME280;29803;51.048;4.686;2023-02-22T02:10:02;101419.31;;;4.45;100.00
44140;BME280;29803;51.048;4.686;2023-02-22T02:12:34;101414.13;;;4.43;100.00
44140;BME280;29803;51.048;4.686;2023-02-22T02:15:26;101410.50;;;4.44;100.00
44140;BME280;29803;51.048;4.686;2023-02-22T02:18:02;101411.81;;;4.38;100.00
44140;BME280;29803;51.048;4.686;2023-02-22T02:40:46;101383.59;;;3.88;100.00
44140;BME280;29803;51.048;4.686;2023-02-22T02:45:58;101384.13;;;3.93;100.00
44140;BME280;29803;51.048;4.686;2023-02-22T02:48:33;101378.69;;;3.95;100.00
44140;BME280;29803;51.048;4.686;2023-02-22T02:51:06;101362.31;;;4.01;100.00
44140;BME280;29803;51.048;4.686;2023-02-22T02:53:42;101362.22;;;4.02;100.00
44140;BME280;29803;51.048;4.686;2023-02-22T02:56:14;101359.78;;;3.99;100.00
44140;BME280;29803;51.048;4.686;2023-02-22T02:58:48;101350.97;;;3.99;100.00
44140;BME280;29803;51.048;4.686;2023-02-22T03:13:29;101349.13;;;3.75;100.00
44140;BME280;29803;51.048;4.686;2023-02-22T03:16:29;101345.75;;;3.73;100.00
44140;BME280;29803;51.048;4.686;2023-02-22T03:19:06;101347.63;;;3.71;100.00
44140;BME280;29803;51.048;4.686;2023-02-22T03:22:01;101340.88;;;3.67;100.00
44140;BME280;29803;51.048;4.686;2023-02-22T03:25:00;101340.66;;;3.70;100.00
44140;BME280;29803;51.048;4.686;2023-02-22T03:27:37;101334.72;;;3.67;100.00
44140;BME280;29803;51.048;4.686;2023-02-22T03:30:18;101333.97;;;3.64;100.00
44140;BME280;29803;51.048;4.686;2023-02-22T03:32:55;101328.28;;;3.58;100.00
44140;BME280;29803;51.048;4.686;2023-02-22T03:35:32;101329.22;;;3.57;100.00
44140;BME280;29803;51.048;4.686;2023-02-22T03:38:07;101324.97;;;3.54;100.00
44140;BME280;29803;51.048;4.686;2023-02-22T03:40:42;101317.59;;;3.47;100.00
44140;BME280;29803;51.048;4.686;2023-02-22T03:43:18;101315.53;;;3.50;100.00
44140;BME280;29803;51.048;4.686;2023-02-22T03:45:51;101316.28;;;3.52;100.00
44140;BME280;29803;51.048;4.686;2023-02-22T03:48:29;101307.56;;;3.50;100.00
44140;BME280;29803;51.048;4.686;2023-02-22T03:51:03;101305.69;;;3.52;100.00
44140;BME280;29803;51.048;4.686;2023-02-22T03:53:34;101299.75;;;3.49;100.00
44140;BME280;29803;51.048;4.686;2023-02-22T03:56:08;101303.34;;;3.48;100.00
44140;BME280;29803;51.048;4.686;2023-02-22T03:58:41;101287.44;;;3.48;100.00
44140;BME280;29803;51.048;4.686;2023-02-22T04:01:13;101297.81;;;3.51;100.00
44140;BME280;29803;51.048;4.686;2023-02-22T04:03:44;101290.81;;;3.50;100.00
44140;BME280;29803;51.048;4.686;2023-02-22T04:06:15;101292.50;;;3.51;100.00
44140;BME280;29803;51.048;4.686;2023-02-22T04:08:45;101290.59;;;3.53;100.00
44140;BME280;29803;51.048;4.686;2023-02-22T04:11:16;101277.34;;;3.53;100.00
44140;BME280;29803;51.048;4.686;2023-02-22T04:13:46;101286.03;;;3.55;100.00
44140;BME280;29803;51.048;4.686;2023-02-22T04:16:17;101289.56;;;3.43;100.00
44140;BME280;29803;51.048;4.686;2023-02-22T04:18:47;101278.75;;;3.33;100.00
44140;BME280;29803;51.048;4.686;2023-02-22T04:21:18;101280.44;;;3.34;100.00
44140;BME280;29803;51.048;4.686;2023-02-22T04:23:48;101273.59;;;3.31;100.00
44140;BME280;29803;51.048;4.686;2023-02-22T04:26:19;101281.75;;;3.28;100.00
44140;BME280;29803;51.048;4.686;2023-02-22T04:28:49;101274.63;;;3.29;100.00
44140;BME280;29803;51.048;4.686;2023-02-22T04:31:20;101269.31;;;3.29;100.00
44140;BME280;29803;51.048;4.686;2023-02-22T04:33:50;101276.13;;;3.33;100.00
44140;BME280;29803;51.048;4.686;2023-02-22T04:36:21;101272.72;;;3.31;100.00
44140;BME280;29803;51.048;4.686;2023-02-22T04:38:52;101272.50;;;3.34;100.00
44140;BME280;29803;51.048;4.686;2023-02-22T04:41:22;101259.13;;;3.35;100.00
44140;BME280;29803;51.048;4.686;2023-02-22T04:43:53;101267.59;;;3.41;100.00
44140;BME280;29803;51.048;4.686;2023-02-22T04:46:23;101257.09;;;3.39;100.00
44140;BME280;29803;51.048;4.686;2023-02-22T04:48:54;101250.31;;;3.35;100.00
44140;BME280;29803;51.048;4.686;2023-02-22T04:51:24;101250.44;;;3.33;100.00
44140;BME280;29803;51.048;4.686;2023-02-22T04:53:55;101251.41;;;3.32;100.00
44140;BME280;29803;51.048;4.686;2023-02-22T04:56:26;101249.91;;;3.28;100.00
44140;BME280;29803;51.048;4.686;2023-02-22T04:58:57;101248.13;;;3.29;100.00
44140;BME280;29803;51.048;4.686;2023-02-22T05:01:38;101239.44;;;3.27;100.00
44140;BME280;29803;51.048;4.686;2023-02-22T05:04:09;101247.47;;;3.25;100.00
44140;BME280;29803;51.048;4.686;2023-02-22T05:06:39;101231.56;;;3.25;100.00
44140;BME280;29803;51.048;4.686;2023-02-22T05:09:10;101236.88;;;3.25;100.00
44140;BME280;29803;51.048;4.686;2023-02-22T05:11:40;101225.53;;;3.23;100.00
44140;BME280;29803;51.048;4.686;2023-02-22T05:14:11;101215.91;;;3.22;100.00
44140;BME280;29803;51.048;4.686;2023-02-22T05:16:41;101212.28;;;3.23;100.00
44140;BME280;29803;51.048;4.686;2023-02-22T05:19:12;101206.00;;;3.24;100.00
44140;BME280;29803;51.048;4.686;2023-02-22T05:21:42;101204.19;;;3.25;100.00
44140;BME280;29803;51.048;4.686;2023-02-22T05:24:13;101211.09;;;3.27;100.00
44140;BME280;29803;51.048;4.686;2023-02-22T05:26:44;101211.72;;;3.31;100.00
44140;BME280;29803;51.048;4.686;2023-02-22T05:29:14;101213.00;;;3.25;100.00
44140;BME280;29803;51.048;4.686;2023-02-22T05:31:45;101211.31;;;3.24;100.00
44140;BME280;29803;51.048;4.686;2023-02-22T05:34:16;101205.06;;;3.25;100.00
44140;BME280;29803;51.048;4.686;2023-02-22T05:36:46;101199.97;;;3.22;100.00
44140;BME280;29803;51.048;4.686;2023-02-22T05:39:17;101199.03;;;3.23;100.00
44140;BME280;29803;51.048;4.686;2023-02-22T05:41:47;101197.22;;;3.24;100.00
44140;BME280;29803;51.048;4.686;2023-02-22T05:44:18;101195.53;;;3.23;100.00
44140;BME280;29803;51.048;4.686;2023-02-22T05:46:48;101197.03;;;3.14;100.00
44140;BME280;29803;51.048;4.686;2023-02-22T05:49:19;101196.38;;;3.10;100.00
44140;BME280;29803;51.048;4.686;2023-02-22T05:51:49;101182.28;;;3.10;100.00
44140;BME280;29803;51.048;4.686;2023-02-22T05:54:20;101184.22;;;3.08;100.00
44140;BME280;29803;51.048;4.686;2023-02-22T05:56:50;101178.91;;;3.08;100.00
44140;BME280;29803;51.048;4.686;2023-02-22T05:59:21;101169.16;;;3.08;100.00
44140;BME280;29803;51.048;4.686;2023-02-22T06:01:51;101173.31;;;3.00;100.00
44140;BME280;29803;51.048;4.686;2023-02-22T06:04:22;101183.72;;;2.90;100.00
44140;BME280;29803;51.048;4.686;2023-02-22T06:06:52;101187.75;;;2.83;100.00
44140;BME280;29803;51.048;4.686;2023-02-22T06:09:23;101193.25;;;2.80;100.00
44140;BME280;29803;51.048;4.686;2023-02-22T06:11:53;101186.59;;;2.74;100.00
44140;BME280;29803;51.048;4.686;2023-02-22T06:14:24;101187.03;;;2.68;100.00
44140;BME280;29803;51.048;4.686;2023-02-22T06:16:55;101185.53;;;2.64;100.00
44140;BME280;29803;51.048;4.686;2023-02-22T06:19:27;101188.50;;;2.59;100.00
44140;BME280;29803;51.048;4.686;2023-02-22T06:21:57;101185.13;;;2.57;100.00
44140;BME280;29803;51.048;4.686;2023-02-22T06:24:30;101177.28;;;2.56;100.00
44140;BME280;29803;51.048;4.686;2023-02-22T06:27:01;101181.84;;;2.54;100.00
44140;BME280;29803;51.048;4.686;2023-02-22T06:29:31;101182.81;;;2.53;100.00
44140;BME280;29803;51.048;4.686;2023-02-22T06:32:02;101178.47;;;2.52;100.00
44140;BME280;29803;51.048;4.686;2023-02-22T06:34:32;101185.56;;;2.51;100.00
44140;BME280;29803;51.048;4.686;2023-02-22T06:37:03;101195.41;;;2.49;100.00
44140;BME280;29803;51.048;4.686;2023-02-22T06:39:33;101183.97;;;2.49;100.00
44140;BME280;29803;51.048;4.686;2023-02-22T06:42:04;101168.19;;;2.47;100.00
44140;BME280;29803;51.048;4.686;2023-02-22T06:44:34;101154.19;;;2.45;100.00
44140;BME280;29803;51.048;4.686;2023-02-22T06:47:05;101156.75;;;2.47;100.00
44140;BME280;29803;51.048;4.686;2023-02-22T06:49:35;101165.31;;;2.50;100.00
44140;BME280;29803;51.048;4.686;2023-02-22T06:52:07;101172.22;;;2.53;100.00
44140;BME280;29803;51.048;4.686;2023-02-22T06:54:38;101173.06;;;2.53;100.00
44140;BME280;29803;51.048;4.686;2023-02-22T06:57:08;101177.50;;;2.53;100.00
44140;BME280;29803;51.048;4.686;2023-02-22T06:59:39;101174.00;;;2.52;100.00
44140;BME280;29803;51.048;4.686;2023-02-22T07:02:11;101174.75;;;2.54;100.00
44140;BME280;29803;51.048;4.686;2023-02-22T07:04:41;101170.09;;;2.58;100.00
44140;BME280;29803;51.048;4.686;2023-02-22T07:07:14;101163.63;;;2.62;100.00
44140;BME280;29803;51.048;4.686;2023-02-22T07:09:45;101162.53;;;2.65;100.00
44140;BME280;29803;51.048;4.686;2023-02-22T07:12:16;101164.88;;;2.69;100.00
44140;BME280;29803;51.048;4.686;2023-02-22T07:14:47;101171.97;;;2.69;100.00
44140;BME280;29803;51.048;4.686;2023-02-22T07:17:17;101174.50;;;2.70;100.00
44140;BME280;29803;51.048;4.686;2023-02-22T07:19:48;101187.16;;;2.67;100.00
44140;BME280;29803;51.048;4.686;2023-02-22T07:22:18;101189.47;;;2.71;100.00
44140;BME280;29803;51.048;4.686;2023-02-22T07:24:49;101185.63;;;2.75;100.00
44140;BME280;29803;51.048;4.686;2023-02-22T07:27:19;101182.78;;;2.78;100.00
44140;BME280;29803;51.048;4.686;2023-02-22T07:29:50;101190.41;;;2.83;100.00
44140;BME280;29803;51.048;4.686;2023-02-22T07:32:21;101176.84;;;2.88;100.00
44140;BME280;29803;51.048;4.686;2023-02-22T07:34:51;101178.84;;;2.97;100.00
44140;BME280;29803;51.048;4.686;2023-02-22T07:37:22;101178.50;;;3.01;100.00
44140;BME280;29803;51.048;4.686;2023-02-22T07:39:52;101170.97;;;3.08;100.00
44140;BME280;29803;51.048;4.686;2023-02-22T07:42:23;101169.53;;;3.15;100.00
44140;BME280;29803;51.048;4.686;2023-02-22T07:44:53;101164.75;;;3.20;100.00
44140;BME280;29803;51.048;4.686;2023-02-22T07:47:24;101167.72;;;3.28;100.00
44140;BME280;29803;51.048;4.686;2023-02-22T07:49:54;101163.88;;;3.32;100.00
44140;BME280;29803;51.048;4.686;2023-02-22T07:52:25;101145.19;;;3.34;100.00
44140;BME280;29803;51.048;4.686;2023-02-22T07:54:55;101155.88;;;3.45;100.00
44140;BME280;29803;51.048;4.686;2023-02-22T07:57:25;101164.50;;;3.60;100.00
44140;BME280;29803;51.048;4.686;2023-02-22T07:59:56;101161.63;;;3.63;100.00
44140;BME280;29803;51.048;4.686;2023-02-22T08:02:26;101171.56;;;3.72;100.00
44140;BME280;29803;51.048;4.686;2023-02-22T08:04:57;101168.31;;;3.80;100.00
44140;BME280;29803;51.048;4.686;2023-02-22T08:07:27;101167.63;;;3.89;100.00
44140;BME280;29803;51.048;4.686;2023-02-22T08:09:58;101165.41;;;4.07;100.00
44140;BME280;29803;51.048;4.686;2023-02-22T08:12:28;101166.03;;;4.22;100.00
44140;BME280;29803;51.048;4.686;2023-02-22T08:14:59;101154.25;;;4.37;100.00
44140;BME280;29803;51.048;4.686;2023-02-22T08:17:30;101158.13;;;4.55;100.00
44140;BME280;29803;51.048;4.686;2023-02-22T08:20:00;101154.16;;;4.72;100.00
44140;BME280;29803;51.048;4.686;2023-02-22T08:22:31;101154.00;;;4.85;100.00
44140;BME280;29803;51.048;4.686;2023-02-22T08:25:01;101155.72;;;4.97;100.00
44140;BME280;29803;51.048;4.686;2023-02-22T08:27:32;101157.97;;;5.13;100.00
44140;BME280;29803;51.048;4.686;2023-02-22T08:30:04;101154.31;;;5.25;100.00
44140;BME280;29803;51.048;4.686;2023-02-22T08:32:34;101153.34;;;5.26;100.00
44140;BME280;29803;51.048;4.686;2023-02-22T08:35:05;101154.31;;;5.25;100.00
44140;BME280;29803;51.048;4.686;2023-02-22T08:37:35;101147.91;;;5.16;100.00
44140;BME280;29803;51.048;4.686;2023-02-22T08:40:06;101146.59;;;5.11;100.00
44140;BME280;29803;51.048;4.686;2023-02-22T08:42:37;101148.66;;;5.18;100.00
44140;BME280;29803;51.048;4.686;2023-02-22T08:45:08;101151.53;;;5.27;100.00
44140;BME280;29803;51.048;4.686;2023-02-22T08:47:39;101151.94;;;5.22;100.00
44140;BME280;29803;51.048;4.686;2023-02-22T08:50:19;101153.47;;;5.25;100.00
44140;BME280;29803;51.048;4.686;2023-02-22T08:52:52;101155.06;;;5.27;100.00
44140;BME280;29803;51.048;4.686;2023-02-22T08:55:26;101141.25;;;5.33;100.00
44140;BME280;29803;51.048;4.686;2023-02-22T08:57:58;101150.69;;;5.37;100.00
44140;BME280;29803;51.048;4.686;2023-02-22T09:00:31;101148.53;;;5.52;100.00
44140;BME280;29803;51.048;4.686;2023-02-22T09:03:03;101152.34;;;5.70;100.00
44140;BME280;29803;51.048;4.686;2023-02-22T09:05:34;101153.75;;;5.86;100.00
44140;BME280;29803;51.048;4.686;2023-02-22T09:08:05;101147.81;;;5.93;100.00
44140;BME280;29803;51.048;4.686;2023-02-22T09:10:35;101138.16;;;6.13;100.00
44140;BME280;29803;51.048;4.686;2023-02-22T09:13:06;101133.59;;;6.25;100.00
44140;BME280;29803;51.048;4.686;2023-02-22T09:15:37;101143.63;;;6.42;100.00
44140;BME280;29803;51.048;4.686;2023-02-22T09:18:10;101142.28;;;6.48;100.00
44140;BME280;29803;51.048;4.686;2023-02-22T09:20:43;101137.41;;;6.53;100.00
44140;BME280;29803;51.048;4.686;2023-02-22T09:23:14;101130.00;;;6.66;100.00
44140;BME280;29803;51.048;4.686;2023-02-22T09:25:44;101136.75;;;6.70;100.00
44140;BME280;29803;51.048;4.686;2023-02-22T09:28:15;101138.03;;;6.76;100.00
44140;BME280;29803;51.048;4.686;2023-02-22T09:30:46;101127.81;;;6.81;100.00
44140;BME280;29803;51.048;4.686;2023-02-22T09:33:18;101134.72;;;6.84;100.00
44140;BME280;29803;51.048;4.686;2023-02-22T09:35:49;101136.13;;;6.97;100.00
44140;BME280;29803;51.048;4.686;2023-02-22T09:38:22;101140.97;;;7.04;100.00
44140;BME280;29803;51.048;4.686;2023-02-22T09:41:17;101143.50;;;7.15;100.00
44140;BME280;29803;51.048;4.686;2023-02-22T09:46:54;101142.69;;;7.24;100.00
44140;BME280;29803;51.048;4.686;2023-02-22T09:52:23;101136.91;;;7.19;100.00
44140;BME280;29803;51.048;4.686;2023-02-22T09:55:02;101136.09;;;7.18;100.00
44140;BME280;29803;51.048;4.686;2023-02-22T09:57:39;101133.00;;;7.23;100.00
44140;BME280;29803;51.048;4.686;2023-02-22T10:00:27;101142.81;;;7.22;100.00
44140;BME280;29803;51.048;4.686;2023-02-22T10:06:09;101147.44;;;7.20;100.00
44140;BME280;29803;51.048;4.686;2023-02-22T10:08:41;101142.25;;;7.19;100.00
44140;BME280;29803;51.048;4.686;2023-02-22T10:27:51;101141.72;;;7.35;100.00
44140;BME280;29803;51.048;4.686;2023-02-22T10:30:41;101143.00;;;7.40;100.00
44140;BME280;29803;51.048;4.686;2023-02-22T10:33:33;101134.41;;;7.46;100.00
44140;BME280;29803;51.048;4.686;2023-02-22T10:36:14;101144.94;;;7.48;100.00
44140;BME280;29803;51.048;4.686;2023-02-22T10:38:52;101140.50;;;7.58;100.00
44140;BME280;29803;51.048;4.686;2023-02-22T10:44:10;101136.53;;;7.82;100.00
44140;BME280;29803;51.048;4.686;2023-02-22T10:46:40;101134.28;;;7.87;100.00
44140;BME280;29803;51.048;4.686;2023-02-22T10:49:17;101137.94;;;7.86;100.00
44140;BME280;29803;51.048;4.686;2023-02-22T10:54:58;101137.25;;;7.93;100.00
44140;BME280;29803;51.048;4.686;2023-02-22T10:57:33;101131.88;;;8.03;100.00
44140;BME280;29803;51.048;4.686;2023-02-22T11:03:30;101127.50;;;8.21;100.00
44140;BME280;29803;51.048;4.686;2023-02-22T11:06:17;101121.13;;;8.32;100.00
44140;BME280;29803;51.048;4.686;2023-02-22T11:08:48;101123.66;;;8.43;100.00
44140;BME280;29803;51.048;4.686;2023-02-22T11:11:36;101125.06;;;8.47;100.00
44140;BME280;29803;51.048;4.686;2023-02-22T11:14:08;101118.16;;;8.54;100.00
44140;BME280;29803;51.048;4.686;2023-02-22T11:16:57;101118.00;;;8.56;100.00
44140;BME280;29803;51.048;4.686;2023-02-22T11:19:30;101115.56;;;8.63;100.00
44140;BME280;29803;51.048;4.686;2023-02-22T11:22:20;101111.97;;;8.81;100.00
44140;BME280;29803;51.048;4.686;2023-02-22T11:24:54;101117.16;;;8.83;100.00
44140;BME280;29803;51.048;4.686;2023-02-22T11:27:43;101116.34;;;9.10;100.00
44140;BME280;29803;51.048;4.686;2023-02-22T11:33:27;101121.91;;;9.17;100.00
44140;BME280;29803;51.048;4.686;2023-02-22T11:36:05;101102.81;;;9.29;100.00
44140;BME280;29803;51.048;4.686;2023-02-22T11:38:38;101108.50;;;9.44;100.00
44140;BME280;29803;51.048;4.686;2023-02-22T11:44:19;101106.88;;;9.51;100.00
44140;BME280;29803;51.048;4.686;2023-02-22T11:46:51;101108.69;;;9.69;100.00
44140;BME280;29803;51.048;4.686;2023-02-22T11:49:32;101120.78;;;9.73;100.00
44140;BME280;29803;51.048;4.686;2023-02-22T11:52:25;101110.78;;;9.75;100.00
44140;BME280;29803;51.048;4.686;2023-02-22T12:00:57;101110.91;;;9.91;100.00
44140;BME280;29803;51.048;4.686;2023-02-22T12:06:31;101112.16;;;9.79;100.00
44140;BME280;29803;51.048;4.686;2023-02-22T12:12:40;101098.59;;;9.63;100.00
44140;BME280;29803;51.048;4.686;2023-02-22T12:15:43;101101.59;;;9.77;100.00
44140;BME280;29803;51.048;4.686;2023-02-22T12:18:34;101104.16;;;9.87;100.00
44140;BME280;29803;51.048;4.686;2023-02-22T12:21:11;101108.91;;;9.93;100.00
44140;BME280;29803;51.048;4.686;2023-02-22T12:26:47;101096.16;;;10.13;100.00
44140;BME280;29803;51.048;4.686;2023-02-22T12:34:48;101101.88;;;10.18;100.00
44140;BME280;29803;51.048;4.686;2023-02-22T12:37:45;101092.16;;;10.17;100.00
44140;BME280;29803;51.048;4.686;2023-02-22T12:43:20;101096.78;;;10.25;100.00
44140;BME280;29803;51.048;4.686;2023-02-22T12:46:08;101092.16;;;10.35;100.00
44140;BME280;29803;51.048;4.686;2023-02-22T12:51:47;101099.19;;;10.36;100.00
44140;BME280;29803;51.048;4.686;2023-02-22T12:54:27;101102.06;;;10.43;100.00
44140;BME280;29803;51.048;4.686;2023-02-22T12:57:07;101106.13;;;10.47;100.00
44140;BME280;29803;51.048;4.686;2023-02-22T12:59:46;101104.44;;;10.46;100.00
44140;BME280;29803;51.048;4.686;2023-02-22T13:02:25;101101.28;;;10.50;100.00
44140;BME280;29803;51.048;4.686;2023-02-22T13:04:59;101110.47;;;10.48;100.00
44140;BME280;29803;51.048;4.686;2023-02-22T13:07:54;101104.97;;;10.49;100.00
44140;BME280;29803;51.048;4.686;2023-02-22T13:16:37;101109.94;;;10.70;100.00
44140;BME280;29803;51.048;4.686;2023-02-22T13:19:33;101111.78;;;10.70;100.00
44140;BME280;29803;51.048;4.686;2023-02-22T13:27:37;101104.88;;;10.67;100.00
44140;BME280;29803;51.048;4.686;2023-02-22T13:38:46;101100.09;;;10.87;100.00
44140;BME280;29803;51.048;4.686;2023-02-22T13:41:33;101106.47;;;10.86;100.00
44140;BME280;29803;51.048;4.686;2023-02-22T13:53:14;101103.28;;;10.82;100.00
44140;BME280;29803;51.048;4.686;2023-02-22T13:55:52;101109.34;;;10.84;100.00
44140;BME280;29803;51.048;4.686;2023-02-22T13:58:24;101122.91;;;10.83;100.00
44140;BME280;29803;51.048;4.686;2023-02-22T14:00:56;101110.31;;;10.83;100.00
44140;BME280;29803;51.048;4.686;2023-02-22T14:03:31;101109.97;;;10.78;100.00
44140;BME280;29803;51.048;4.686;2023-02-22T14:06:07;101120.38;;;10.81;100.00
44140;BME280;29803;51.048;4.686;2023-02-22T14:08:39;101110.97;;;10.77;100.00
44140;BME280;29803;51.048;4.686;2023-02-22T14:14:13;101121.53;;;10.79;100.00
44140;BME280;29803;51.048;4.686;2023-02-22T14:20:01;101127.88;;;10.70;100.00
44140;BME280;29803;51.048;4.686;2023-02-22T14:22:33;101123.31;;;10.62;100.00
44140;BME280;29803;51.048;4.686;2023-02-22T14:25:04;101129.47;;;10.54;100.00
44140;BME280;29803;51.048;4.686;2023-02-22T14:27:50;101130.09;;;10.48;100.00
44140;BME280;29803;51.048;4.686;2023-02-22T14:30:24;101124.72;;;10.48;100.00
44140;BME280;29803;51.048;4.686;2023-02-22T14:32:55;101126.16;;;10.60;100.00
44140;BME280;29803;51.048;4.686;2023-02-22T14:35:35;101131.34;;;10.62;100.00
44140;BME280;29803;51.048;4.686;2023-02-22T14:38:15;101130.81;;;10.58;100.00
44140;BME280;29803;51.048;4.686;2023-02-22T14:40:50;101128.47;;;10.55;100.00
44140;BME280;29803;51.048;4.686;2023-02-22T14:43:23;101131.47;;;10.52;100.00
44140;BME280;29803;51.048;4.686;2023-02-22T14:45:56;101130.78;;;10.50;100.00
44140;BME280;29803;51.048;4.686;2023-02-22T14:48:48;101128.53;;;10.37;100.00
44140;BME280;29803;51.048;4.686;2023-02-22T14:51:24;101130.06;;;10.40;100.00
44140;BME280;29803;51.048;4.686;2023-02-22T14:54:05;101131.75;;;10.41;100.00
44140;BME280;29803;51.048;4.686;2023-02-22T14:56:42;101130.44;;;10.45;100.00
44140;BME280;29803;51.048;4.686;2023-02-22T14:59:21;101131.38;;;10.36;100.00
44140;BME280;29803;51.048;4.686;2023-02-22T15:02:11;101130.84;;;10.32;100.00
44140;BME280;29803;51.048;4.686;2023-02-22T15:04:50;101142.03;;;10.28;100.00
44140;BME280;29803;51.048;4.686;2023-02-22T15:07:25;101143.09;;;10.17;100.00
44140;BME280;29803;51.048;4.686;2023-02-22T15:10:18;101137.91;;;10.16;100.00
44140;BME280;29803;51.048;4.686;2023-02-22T15:12:51;101137.19;;;10.13;100.00
44140;BME280;29803;51.048;4.686;2023-02-22T15:15:22;101136.22;;;10.15;100.00
44140;BME280;29803;51.048;4.686;2023-02-22T15:17:54;101134.84;;;10.10;100.00
44140;BME280;29803;51.048;4.686;2023-02-22T15:20:25;101132.47;;;10.07;100.00
44140;BME280;29803;51.048;4.686;2023-02-22T15:22:58;101138.91;;;10.15;100.00
44140;BME280;29803;51.048;4.686;2023-02-22T15:25:29;101134.16;;;10.08;100.00
44140;BME280;29803;51.048;4.686;2023-02-22T15:28:02;101136.16;;;10.06;100.00
44140;BME280;29803;51.048;4.686;2023-02-22T15:30:33;101137.00;;;10.07;100.00
44140;BME280;29803;51.048;4.686;2023-02-22T15:33:21;101142.34;;;10.07;100.00
44140;BME280;29803;51.048;4.686;2023-02-22T15:35:58;101138.47;;;10.01;100.00
44140;BME280;29803;51.048;4.686;2023-02-22T15:38:29;101137.84;;;10.07;100.00
44140;BME280;29803;51.048;4.686;2023-02-22T15:41:01;101137.94;;;9.98;100.00
44140;BME280;29803;51.048;4.686;2023-02-22T15:43:32;101136.41;;;9.95;100.00